Time;durP1;ratioP1;P1;durP2;ratioP2;P2;SDS_P1;SDS_P2;PMS_P1;PMS_P2;Temp;Humidity;BMP_temperature;BMP_pressure;BME280_temperature;BME280_humidity;BME280_pressure;Samples;Min_cycle;Max_cycle;Signal;HPM_P1;HPM_P2
2022/02/08 00:01:41;;;;;;;1.80;1.70;;;5.90;99.90;;;;;;5038399;28;20562;-80
2022/02/08 00:04:08;;;;;;;1.02;1.02;;;6.00;99.90;;;;;;5044852;28;20697;-79
2022/02/08 00:24:16;;;;;;;1.42;0.70;;;5.80;99.90;;;;;;5038648;28;20163;-81
2022/02/08 00:26:44;;;;;;;3.05;1.73;;;5.80;99.90;;;;;;5036660;28;20207;-82
2022/02/08 00:29:11;;;;;;;1.35;0.85;;;5.80;99.90;;;;;;5037627;28;20221;-80
2022/02/08 00:31:38;;;;;;;0.50;0.50;;;5.80;99.90;;;;;;5037676;28;20220;-80
2022/02/08 00:34:04;;;;;;;0.70;0.50;;;5.80;99.90;;;;;;5038091;28;20203;-81
2022/02/08 00:36:31;;;;;;;9.60;2.58;;;5.80;99.90;;;;;;5038142;28;20203;-80
2022/02/08 00:38:58;;;;;;;2.55;0.77;;;5.80;99.90;;;;;;5038846;28;20253;-79
2022/02/08 00:41:25;;;;;;;0.55;0.52;;;5.90;99.90;;;;;;5038215;28;20229;-79
2022/02/08 00:43:59;;;;;;;6.93;0.90;;;5.80;99.90;;;;;;5038721;28;20284;-78
2022/02/08 00:46:33;;;;;;;5.30;1.15;;;5.80;99.90;;;;;;5039377;28;20266;-79
2022/02/08 00:49:01;;;;;;;0.73;0.60;;;5.80;99.90;;;;;;5047385;28;20199;-78
2022/02/08 00:51:38;;;;;;;0.50;0.40;;;5.80;99.90;;;;;;5052561;28;20249;-78
2022/02/08 00:54:05;;;;;;;0.98;0.60;;;5.80;99.90;;;;;;5046323;28;20179;-81
2022/02/08 00:56:31;;;;;;;0.50;0.40;;;5.90;99.90;;;;;;5043323;28;20191;-80
2022/02/08 00:58:59;;;;;;;0.70;0.70;;;5.90;99.90;;;;;;5042869;28;20198;-79
2022/02/08 01:01:27;;;;;;;1.00;0.98;;;5.90;99.90;;;;;;5043292;28;20298;-81
2022/02/08 01:03:54;;;;;;;4.32;0.70;;;5.90;99.90;;;;;;5043944;28;20206;-78
2022/02/08 01:06:21;;;;;;;0.50;0.50;;;5.90;99.90;;;;;;5044484;28;20199;-81
2022/02/08 01:08:48;;;;;;;1.70;1.60;;;5.90;99.90;;;;;;5044343;28;20199;-79
2022/02/08 01:11:17;;;;;;;0.60;0.60;;;5.90;99.90;;;;;;5043857;28;20267;-81
2022/02/08 01:13:44;;;;;;;7.22;2.45;;;5.90;99.90;;;;;;5042978;28;20200;-81
2022/02/08 01:16:12;;;;;;;4.43;0.65;;;5.90;99.90;;;;;;5043127;28;20278;-80
2022/02/08 01:18:42;;;;;;;2.58;2.25;;;5.90;99.90;;;;;;5041932;28;20201;-82
2022/02/08 01:21:09;;;;;;;0.60;0.57;;;5.90;99.90;;;;;;5040176;28;20187;-81
2022/02/08 01:23:36;;;;;;;1.98;0.70;;;5.80;99.90;;;;;;5039756;28;20569;-82
2022/02/08 01:26:10;;;;;;;2.72;0.70;;;5.70;99.90;;;;;;5042138;28;20192;-81
2022/02/08 01:28:49;;;;;;;5.93;1.42;;;5.60;99.90;;;;;;5043101;28;20240;-81
2022/02/08 01:31:19;;;;;;;10.50;1.42;;;5.50;99.90;;;;;;5041917;28;20737;-80
2022/02/08 01:37:02;;;;;;;2.97;0.80;;;5.40;99.90;;;;;;5045115;28;20276;-80
2022/02/08 01:39:37;;;;;;;2.00;1.85;;;5.40;99.90;;;;;;5046107;28;20248;-81
2022/02/08 01:42:25;;;;;;;1.25;0.90;;;5.40;99.90;;;;;;5046490;28;20261;-81
2022/02/08 01:45:12;;;;;;;0.50;0.40;;;5.40;99.90;;;;;;5046257;28;20192;-81
2022/02/08 01:47:48;;;;;;;1.50;0.90;;;5.40;99.90;;;;;;5047329;28;20195;-81
2022/02/08 01:50:16;;;;;;;0.85;0.85;;;5.40;99.90;;;;;;5044985;28;20199;-81
2022/02/08 01:52:45;;;;;;;1.35;1.25;;;5.30;99.90;;;;;;5044501;28;20238;-81
2022/02/08 01:55:16;;;;;;;3.55;3.35;;;5.30;99.90;;;;;;5045044;28;20215;-81
2022/02/08 01:57:44;;;;;;;11.25;1.95;;;5.30;99.90;;;;;;5043710;28;20612;-81
2022/02/08 02:00:12;;;;;;;2.28;1.15;;;5.30;99.90;;;;;;5041825;28;20225;-80
2022/02/08 02:02:41;;;;;;;0.90;0.88;;;5.20;99.90;;;;;;5042343;28;20220;-80
2022/02/08 02:05:09;;;;;;;5.47;1.80;;;5.30;99.90;;;;;;5042441;28;20214;-81
2022/02/08 02:07:36;;;;;;;3.78;1.90;;;5.30;99.90;;;;;;5042145;28;20734;-81
2022/02/08 02:10:04;;;;;;;4.20;1.88;;;5.20;99.90;;;;;;5041408;28;20210;-80
2022/02/08 02:12:31;;;;;;;5.85;2.45;;;5.20;99.90;;;;;;5042457;28;20630;-81
2022/02/08 02:15:03;;;;;;;2.60;1.65;;;5.20;99.90;;;;;;5042843;28;20217;-80
2022/02/08 02:17:29;;;;;;;3.88;1.38;;;5.20;99.90;;;;;;5042248;28;20186;-81
2022/02/08 02:19:57;;;;;;;8.77;2.58;;;5.20;99.90;;;;;;5040830;28;20227;-80
2022/02/08 02:22:24;;;;;;;2.10;1.60;;;5.30;99.90;;;;;;5042198;28;20218;-81
2022/02/08 02:24:52;;;;;;;2.13;1.88;;;5.30;99.90;;;;;;5042003;28;20203;-81
2022/02/08 02:27:19;;;;;;;5.72;2.53;;;5.30;99.90;;;;;;5042135;28;20199;-80
2022/02/08 02:29:45;;;;;;;1.30;0.95;;;5.30;99.90;;;;;;5042177;28;20226;-81
2022/02/08 02:32:13;;;;;;;1.77;1.05;;;5.30;99.90;;;;;;5042492;28;20223;-81
2022/02/08 02:34:46;;;;;;;2.90;1.77;;;5.30;99.90;;;;;;5042130;28;20214;-80
2022/02/08 02:37:13;;;;;;;1.30;1.20;;;5.30;99.90;;;;;;5044109;28;20215;-80
2022/02/08 02:39:40;;;;;;;1.05;1.05;;;5.30;99.90;;;;;;5043380;28;20550;-80
2022/02/08 02:42:12;;;;;;;2.15;1.17;;;5.30;99.90;;;;;;5042187;28;20229;-80
2022/02/08 02:44:39;;;;;;;3.15;1.63;;;5.40;99.90;;;;;;5043086;28;20199;-79
2022/02/08 02:47:06;;;;;;;3.65;3.42;;;5.40;99.90;;;;;;5043848;28;20188;-80
2022/02/08 02:49:32;;;;;;;2.15;1.95;;;5.40;99.90;;;;;;5040943;28;20253;-80
2022/02/08 02:52:00;;;;;;;3.25;2.88;;;5.40;99.90;;;;;;5041142;28;20215;-79
2022/02/08 02:54:27;;;;;;;1.17;1.08;;;5.40;99.90;;;;;;5040439;28;20218;-79
2022/02/08 02:56:58;;;;;;;7.68;2.15;;;5.40;99.90;;;;;;5039391;28;20242;-80
2022/02/08 02:59:29;;;;;;;3.42;3.15;;;5.40;99.90;;;;;;5040162;28;20202;-81
2022/02/08 03:02:18;;;;;;;8.32;2.75;;;5.40;99.90;;;;;;5039287;28;20251;-81
2022/02/08 03:04:53;;;;;;;2.45;0.80;;;5.40;99.90;;;;;;5040214;28;20624;-81
2022/02/08 03:21:04;;;;;;;1.92;1.83;;;5.40;99.90;;;;;;5039696;28;20195;-81
2022/02/08 03:23:31;;;;;;;1.17;0.82;;;5.40;99.90;;;;;;5040261;28;20240;-81
2022/02/08 03:25:58;;;;;;;4.72;1.52;;;5.50;99.90;;;;;;5040575;28;20203;-79
2022/02/08 03:28:24;;;;;;;1.25;1.15;;;5.50;99.90;;;;;;5040201;28;20664;-80
2022/02/08 03:30:52;;;;;;;3.42;0.60;;;5.50;99.90;;;;;;5040934;28;20242;-80
2022/02/08 03:33:20;;;;;;;5.13;2.65;;;5.50;99.90;;;;;;5040995;28;20226;-81
2022/02/08 03:35:47;;;;;;;1.48;1.38;;;5.50;99.90;;;;;;5040669;28;20212;-81
2022/02/08 03:38:17;;;;;;;3.92;3.20;;;5.60;99.90;;;;;;5039300;28;20218;-81
2022/02/08 03:40:48;;;;;;;3.67;2.33;;;5.60;99.90;;;;;;5039048;28;20208;-81
2022/02/08 03:43:26;;;;;;;3.95;2.20;;;5.60;99.90;;;;;;5039443;28;20217;-80
2022/02/08 03:45:57;;;;;;;2.65;2.45;;;5.60;99.90;;;;;;5039556;28;20231;-81
2022/02/08 03:48:27;;;;;;;2.72;2.53;;;5.60;99.90;;;;;;5040054;28;20263;-81
2022/02/08 03:50:57;;;;;;;2.05;1.85;;;5.70;99.90;;;;;;5040538;28;20249;-81
2022/02/08 03:53:26;;;;;;;0.40;0.40;;;5.70;99.90;;;;;;5052954;28;20205;-80
2022/02/08 03:55:53;;;;;;;1.02;0.73;;;5.80;99.90;;;;;;5039733;28;20211;-81
2022/02/08 03:58:20;;;;;;;6.68;2.25;;;5.80;99.90;;;;;;5038940;28;20211;-81
2022/02/08 04:01:02;;;;;;;1.75;1.45;;;5.80;99.90;;;;;;5038528;28;20558;-81
2022/02/08 04:03:33;;;;;;;4.30;2.47;;;5.90;99.90;;;;;;5038968;28;20180;-81
2022/02/08 04:06:01;;;;;;;8.73;4.40;;;5.90;99.90;;;;;;5039771;28;20625;-78
2022/02/08 04:08:29;;;;;;;7.45;4.40;;;6.00;99.90;;;;;;5039204;28;20197;-81
2022/02/08 04:10:58;;;;;;;5.70;4.88;;;6.00;99.90;;;;;;5037556;28;20199;-81
2022/02/08 04:13:30;;;;;;;7.07;3.55;;;6.00;99.90;;;;;;5038629;28;20630;-81
2022/02/08 04:16:05;;;;;;;2.25;2.15;;;6.10;99.90;;;;;;5038911;28;20211;-81
2022/02/08 04:18:44;;;;;;;6.70;4.15;;;6.10;99.90;;;;;;5036428;22;20718;-79
2022/02/08 04:32:23;;;;;;;4.32;3.33;;;6.30;99.90;;;;;;4992800;28;20277;-78
2022/02/08 04:35:01;;;;;;;2.88;2.38;;;6.30;99.90;;;;;;4992751;28;20251;-78
2022/02/08 04:43:04;;;;;;;14.48;5.07;;;6.40;99.90;;;;;;4992254;28;20633;-79
2022/02/08 04:45:31;;;;;;;1.45;1.45;;;6.50;99.90;;;;;;4992872;28;20187;-78
2022/02/08 04:48:07;;;;;;;2.88;1.50;;;6.50;99.90;;;;;;4992279;28;20630;-78
2022/02/08 04:50:37;;;;;;;1.00;1.00;;;6.50;99.90;;;;;;4992327;28;20225;-78
2022/02/08 04:53:10;;;;;;;6.00;4.15;;;6.50;99.90;;;;;;4992756;28;20562;-78
2022/02/08 04:55:45;;;;;;;1.55;1.45;;;6.60;99.90;;;;;;4992619;28;20214;-77
2022/02/08 04:58:22;;;;;;;28.50;3.70;;;6.60;99.90;;;;;;4992144;28;20224;-78
2022/02/08 05:01:01;;;;;;;4.20;4.00;;;6.60;99.90;;;;;;4992157;28;20198;-78
2022/02/08 05:34:18;;;;;;;4.25;1.40;;;7.00;99.90;;;;;;4995959;28;20197;-78
2022/02/08 05:42:59;;;;;;;2.80;2.55;;;7.10;99.90;;;;;;4976249;28;20341;-77
2022/02/08 05:45:29;;;;;;;1.50;1.40;;;7.10;99.90;;;;;;4976706;28;20204;-77
2022/02/08 05:48:00;;;;;;;5.97;4.43;;;7.10;99.90;;;;;;4975757;28;20222;-78
2022/02/08 05:50:39;;;;;;;1.20;0.82;;;7.10;99.90;;;;;;4976016;28;20276;-76
2022/02/08 05:53:14;;;;;;;1.23;1.17;;;7.10;99.90;;;;;;4976324;28;20204;-77
2022/02/08 05:55:42;;;;;;;2.17;1.38;;;7.20;99.90;;;;;;4975064;28;20214;-78
2022/02/08 05:58:09;;;;;;;11.23;3.05;;;7.20;99.90;;;;;;4974296;28;20292;-77
2022/02/08 06:00:37;;;;;;;1.77;1.67;;;7.20;99.90;;;;;;4976290;28;20200;-77
2022/02/08 06:03:06;;;;;;;4.63;2.80;;;7.20;99.90;;;;;;4975690;28;20233;-78
2022/02/08 06:05:33;;;;;;;2.60;1.75;;;7.20;99.90;;;;;;4976030;28;20209;-78
2022/02/08 06:07:59;;;;;;;3.70;1.73;;;7.30;99.90;;;;;;4975173;28;20238;-77
2022/02/08 06:10:27;;;;;;;0.60;0.60;;;7.30;99.90;;;;;;4975729;28;20614;-77
2022/02/08 06:12:56;;;;;;;2.35;2.25;;;7.30;99.90;;;;;;4975876;28;20750;-76
2022/02/08 06:15:25;;;;;;;2.53;2.38;;;7.40;99.90;;;;;;4975433;28;20210;-78
2022/02/08 06:17:53;;;;;;;2.28;2.17;;;7.30;99.90;;;;;;4975711;28;20219;-78
2022/02/08 06:20:19;;;;;;;7.30;2.05;;;7.40;99.90;;;;;;4974996;28;20626;-78
2022/02/08 06:22:46;;;;;;;1.42;1.33;;;7.30;99.90;;;;;;4975631;28;20207;-78
2022/02/08 06:25:16;;;;;;;2.17;1.95;;;7.40;99.90;;;;;;4975175;28;20210;-77
2022/02/08 06:27:43;;;;;;;0.50;0.50;;;7.30;99.90;;;;;;4975116;28;20226;-78
2022/02/08 06:30:12;;;;;;;1.95;1.65;;;7.40;99.90;;;;;;4975506;28;20210;-78
2022/02/08 06:32:39;;;;;;;5.43;3.38;;;7.40;99.90;;;;;;4975843;28;20692;-78
2022/02/08 06:35:12;;;;;;;5.55;1.85;;;7.30;99.90;;;;;;4975465;28;20821;-78
2022/02/08 06:37:40;;;;;;;2.60;2.40;;;7.30;99.90;;;;;;4975497;28;20222;-78
2022/02/08 06:40:08;;;;;;;2.55;2.35;;;7.30;99.90;;;;;;4975406;28;20944;-77
2022/02/08 06:42:35;;;;;;;3.53;3.33;;;7.30;99.90;;;;;;4976476;28;20579;-78
2022/02/08 06:45:03;;;;;;;2.33;2.20;;;7.30;99.90;;;;;;4975735;28;20203;-78
2022/02/08 06:47:32;;;;;;;3.00;1.42;;;7.30;99.90;;;;;;4977063;28;20639;-77
2022/02/08 06:49:59;;;;;;;2.55;2.15;;;7.30;99.90;;;;;;4974304;28;20202;-76
2022/02/08 06:52:26;;;;;;;4.47;4.18;;;7.30;99.90;;;;;;4975167;28;20226;-77
2022/02/08 06:54:52;;;;;;;3.08;2.80;;;7.30;99.90;;;;;;4974290;28;20245;-77
2022/02/08 06:57:19;;;;;;;2.25;1.30;;;7.30;99.90;;;;;;4981147;28;20635;-79
2022/02/08 06:59:51;;;;;;;8.77;4.95;;;7.30;99.90;;;;;;4974246;28;20220;-78
2022/02/08 07:02:17;;;;;;;2.30;2.10;;;7.30;99.90;;;;;;4975181;28;20208;-78
2022/02/08 07:04:45;;;;;;;1.88;1.77;;;7.30;99.90;;;;;;4974992;28;20575;-78
2022/02/08 07:07:15;;;;;;;3.42;3.15;;;7.30;99.90;;;;;;4974279;28;20237;-78
2022/02/08 07:09:43;;;;;;;2.45;1.50;;;7.40;99.90;;;;;;4974473;28;20675;-77
2022/02/08 07:12:10;;;;;;;1.50;1.40;;;7.40;99.90;;;;;;4974818;28;20447;-78
2022/02/08 07:14:37;;;;;;;3.05;2.85;;;7.40;99.90;;;;;;4974377;28;20663;-78
2022/02/08 07:17:05;;;;;;;7.45;3.03;;;7.40;99.90;;;;;;4974334;28;20249;-77
2022/02/08 07:19:32;;;;;;;5.72;4.55;;;7.40;99.90;;;;;;4974071;28;20203;-78
2022/02/08 07:22:00;;;;;;;0.40;0.40;;;7.40;99.90;;;;;;4974323;28;20202;-77
2022/02/08 07:24:27;;;;;;;2.83;2.67;;;7.40;99.90;;;;;;4974110;28;20708;-78
2022/02/08 07:26:55;;;;;;;1.70;1.60;;;7.50;99.90;;;;;;4973173;28;20199;-79
2022/02/08 07:29:22;;;;;;;1.95;1.00;;;7.50;99.90;;;;;;4974375;28;20276;-78
2022/02/08 07:31:52;;;;;;;0.95;0.95;;;7.50;99.90;;;;;;4974385;28;20198;-77
2022/02/08 07:34:22;;;;;;;4.35;2.50;;;7.50;99.90;;;;;;4974611;28;20181;-78
2022/02/08 07:36:57;;;;;;;0.40;0.40;;;7.60;99.90;;;;;;4974029;28;20229;-78
2022/02/08 07:39:34;;;;;;;3.33;3.03;;;7.60;99.90;;;;;;4973688;28;20213;-75
2022/02/08 07:42:01;;;;;;;2.55;2.35;;;7.70;99.90;;;;;;4973923;28;20236;-76
2022/02/08 07:44:28;;;;;;;4.10;3.25;;;7.80;99.90;;;;;;4974000;28;20253;-76
2022/02/08 07:46:54;;;;;;;14.15;2.10;;;7.70;99.90;;;;;;4973778;28;20193;-81
2022/02/08 07:49:21;;;;;;;8.18;4.43;;;7.80;99.90;;;;;;4988112;28;20536;-77
2022/02/08 07:51:48;;;;;;;0.63;0.63;;;7.80;99.90;;;;;;4993510;28;20265;-77
2022/02/08 07:54:14;;;;;;;3.95;1.05;;;7.80;99.90;;;;;;4993255;28;20206;-77
2022/02/08 07:56:42;;;;;;;2.15;1.58;;;7.90;99.90;;;;;;4992502;28;20297;-78
2022/02/08 07:59:09;;;;;;;1.40;1.33;;;7.90;99.90;;;;;;4992794;28;20220;-77
2022/02/08 08:01:36;;;;;;;1.10;1.00;;;8.00;99.90;;;;;;4992777;28;20250;-77
2022/02/08 08:04:02;;;;;;;0.88;0.80;;;8.00;99.90;;;;;;4991639;28;20655;-77
2022/02/08 08:06:29;;;;;;;2.13;1.92;;;8.10;99.90;;;;;;4991499;28;20365;-78
2022/02/08 08:08:56;;;;;;;0.98;0.98;;;8.10;99.90;;;;;;4991840;28;20280;-77
2022/02/08 08:11:23;;;;;;;1.25;1.15;;;8.10;99.90;;;;;;4992607;28;20295;-75
2022/02/08 08:14:01;;;;;;;3.78;3.42;;;8.10;99.90;;;;;;4992413;28;20659;-76
2022/02/08 08:16:39;;;;;;;5.80;4.43;;;8.20;99.90;;;;;;4992607;28;20211;-75
2022/02/08 08:19:19;;;;;;;1.00;1.00;;;8.20;99.90;;;;;;4992238;28;20230;-76
2022/02/08 08:21:47;;;;;;;4.00;3.63;;;8.20;99.90;;;;;;4991693;28;20187;-75
2022/02/08 08:24:14;;;;;;;0.40;0.30;;;8.20;99.90;;;;;;4992227;28;20664;-75
2022/02/08 08:26:40;;;;;;;1.85;1.52;;;8.30;99.90;;;;;;4992577;28;20243;-76
2022/02/08 08:29:09;;;;;;;7.85;3.13;;;8.30;99.90;;;;;;4991918;28;20249;-76
2022/02/08 08:31:35;;;;;;;4.18;2.67;;;8.30;99.90;;;;;;4992524;28;20202;-75
2022/02/08 08:34:02;;;;;;;0.50;0.40;;;8.40;99.90;;;;;;4992792;28;20202;-77
2022/02/08 08:36:30;;;;;;;6.38;3.20;;;8.40;99.90;;;;;;4992695;28;20232;-76
2022/02/08 08:38:57;;;;;;;5.00;2.15;;;8.40;99.90;;;;;;4992698;28;20296;-77
2022/02/08 08:41:29;;;;;;;17.08;3.92;;;8.40;99.90;;;;;;4992580;28;20664;-77
2022/02/08 08:44:36;;;;;;;2.30;1.80;;;8.50;99.90;;;;;;4992563;28;20223;-77
2022/02/08 08:50:02;;;;;;;3.83;2.58;;;8.60;99.90;;;;;;4997408;28;20182;-77
2022/02/08 08:52:36;;;;;;;0.50;0.38;;;8.60;99.90;;;;;;4997874;28;20218;-78
2022/02/08 08:55:04;;;;;;;2.42;2.22;;;8.70;99.90;;;;;;4997202;28;20210;-77
2022/02/08 08:57:31;;;;;;;2.05;1.10;;;8.70;99.90;;;;;;4996444;28;20310;-77
2022/02/08 08:59:58;;;;;;;0.60;0.60;;;8.80;99.90;;;;;;4995710;28;20217;-75
2022/02/08 09:02:26;;;;;;;0.40;0.40;;;8.80;99.90;;;;;;4996666;28;20641;-77
2022/02/08 09:04:54;;;;;;;2.17;2.05;;;8.80;99.90;;;;;;4996250;28;20692;-76
2022/02/08 09:07:22;;;;;;;1.20;1.10;;;8.80;99.90;;;;;;4995514;28;20222;-76
2022/02/08 09:09:54;;;;;;;45.20;4.60;;;8.90;99.90;;;;;;4995831;28;20214;-75
2022/02/08 09:12:25;;;;;;;1.45;1.35;;;9.00;99.90;;;;;;4996339;28;20680;-76
2022/02/08 09:15:09;;;;;;;0.50;0.45;;;8.90;99.90;;;;;;4995789;28;20203;-77
2022/02/08 09:23:44;;;;;;;1.65;1.27;;;8.90;99.90;;;;;;4995633;28;20176;-76
2022/02/08 09:28:54;;;;;;;1.73;1.63;;;9.00;99.90;;;;;;4992029;28;20211;-76
2022/02/08 09:31:21;;;;;;;1.75;1.65;;;9.00;99.90;;;;;;4995321;28;20210;-76
2022/02/08 09:33:50;;;;;;;6.95;3.60;;;9.10;99.90;;;;;;4995480;28;20202;-76
2022/02/08 09:36:20;;;;;;;2.70;1.92;;;9.10;99.90;;;;;;4995676;28;20201;-77
2022/02/08 09:38:46;;;;;;;3.15;2.05;;;9.10;99.90;;;;;;4995435;28;20230;-76
2022/02/08 09:41:15;;;;;;;0.88;0.70;;;9.10;99.90;;;;;;4995319;28;20212;-77
2022/02/08 09:43:43;;;;;;;3.45;2.40;;;9.20;99.90;;;;;;4995527;28;20211;-77
2022/02/08 09:46:10;;;;;;;0.65;0.65;;;9.20;99.90;;;;;;4995395;28;20203;-77
2022/02/08 09:48:44;;;;;;;7.90;2.58;;;9.30;99.90;;;;;;4995649;28;20688;-76
2022/02/08 09:51:13;;;;;;;0.80;0.70;;;9.30;99.90;;;;;;4994918;28;20286;-77
2022/02/08 09:53:42;;;;;;;1.65;1.55;;;9.30;99.90;;;;;;4995026;28;20199;-77
2022/02/08 09:56:09;;;;;;;2.85;2.70;;;9.30;99.90;;;;;;4995050;28;20203;-78
2022/02/08 09:58:36;;;;;;;1.88;0.65;;;9.30;99.90;;;;;;4995443;28;20229;-77
2022/02/08 10:01:06;;;;;;;1.67;1.52;;;9.30;99.90;;;;;;4993967;28;20199;-77
2022/02/08 10:03:33;;;;;;;2.67;1.95;;;9.30;99.90;;;;;;4994660;28;20602;-77
2022/02/08 10:05:59;;;;;;;4.85;3.92;;;9.40;99.90;;;;;;4994972;28;20676;-78
2022/02/08 10:08:29;;;;;;;1.98;1.60;;;9.40;99.90;;;;;;4995153;28;20219;-76
2022/02/08 10:10:55;;;;;;;1.83;1.73;;;9.40;99.90;;;;;;4994702;28;20594;-76
2022/02/08 10:21:44;;;;;;;4.03;0.88;;;9.70;99.90;;;;;;4994345;28;20199;-77
2022/02/08 10:24:14;;;;;;;1.35;1.25;;;9.80;99.90;;;;;;4994650;28;20207;-77
2022/02/08 10:26:53;;;;;;;2.40;2.30;;;9.90;99.90;;;;;;4994656;28;20204;-78
2022/02/08 10:29:26;;;;;;;1.83;1.02;;;9.80;99.90;;;;;;4994350;28;20199;-77
2022/02/08 10:37:42;;;;;;;1.70;1.60;;;9.90;99.90;;;;;;4994075;28;20255;-77
2022/02/08 10:40:15;;;;;;;6.40;5.28;;;10.00;99.90;;;;;;4994407;28;20192;-77
2022/02/08 10:42:43;;;;;;;0.95;0.95;;;10.00;99.90;;;;;;4994162;28;20211;-77
2022/02/08 10:45:19;;;;;;;1.33;1.23;;;10.00;99.90;;;;;;4994140;28;20204;-76
2022/02/08 10:47:48;;;;;;;2.90;1.00;;;10.10;99.90;;;;;;4994058;28;20217;-77
2022/02/08 10:50:16;;;;;;;1.35;1.30;;;10.10;99.90;;;;;;4993980;28;20330;-77
2022/02/08 10:52:44;;;;;;;2.35;2.15;;;10.10;99.90;;;;;;4994347;28;20197;-77
2022/02/08 10:55:23;;;;;;;3.05;2.75;;;10.20;99.90;;;;;;4994211;28;20200;-77
2022/02/08 10:57:58;;;;;;;1.35;1.20;;;10.20;99.90;;;;;;4994059;28;20270;-77
2022/02/08 11:00:31;;;;;;;0.52;0.52;;;10.30;99.90;;;;;;4993193;28;20247;-77
2022/02/08 11:03:01;;;;;;;3.50;1.73;;;10.30;99.90;;;;;;4993547;28;20180;-74
2022/02/08 11:05:40;;;;;;;0.50;0.40;;;10.40;99.90;;;;;;4994491;28;20533;-76
2022/02/08 11:08:37;;;;;;;2.08;1.08;;;10.50;99.90;;;;;;4993972;28;20654;-77
2022/02/08 11:11:31;;;;;;;0.77;0.63;;;10.50;99.90;;;;;;4992540;28;20204;-77
2022/02/08 11:19:47;;;;;;;0.65;0.65;;;10.50;99.90;;;;;;4993243;28;20942;-76
2022/02/08 11:22:29;;;;;;;1.02;0.85;;;10.50;99.90;;;;;;4993780;28;20275;-77
2022/02/08 11:25:02;;;;;;;2.45;1.63;;;10.50;99.90;;;;;;4993476;28;20185;-77
2022/02/08 11:27:40;;;;;;;2.63;2.30;;;10.30;99.90;;;;;;4993389;28;20307;-77
2022/02/08 11:30:17;;;;;;;1.25;1.15;;;10.20;99.90;;;;;;4993152;28;20211;-76
2022/02/08 11:32:58;;;;;;;1.70;1.60;;;10.10;99.90;;;;;;4993448;28;20227;-77
2022/02/08 11:44:10;;;;;;;0.50;0.40;;;10.20;99.90;;;;;;4993560;28;20208;-77
2022/02/08 11:47:09;;;;;;;0.50;0.40;;;10.20;99.90;;;;;;4993389;28;20617;-77
2022/02/08 11:49:47;;;;;;;2.67;1.73;;;10.20;99.90;;;;;;4992706;28;20200;-77
2022/02/08 11:52:32;;;;;;;0.88;0.88;;;10.20;99.90;;;;;;4992881;28;20184;-77
2022/02/08 11:58:11;;;;;;;5.65;1.75;;;10.30;99.90;;;;;;4989091;28;20274;-78
2022/02/08 12:00:43;;;;;;;0.50;0.40;;;10.30;99.90;;;;;;4991920;28;20230;-77
2022/02/08 12:03:55;;;;;;;6.45;1.63;;;10.30;99.90;;;;;;4992999;28;20287;-77
2022/02/08 12:09:11;;;;;;;0.50;0.40;;;10.20;99.90;;;;;;4991962;28;20223;-77
2022/02/08 12:12:06;;;;;;;1.65;1.17;;;10.30;99.90;;;;;;4992223;28;20189;-77
2022/02/08 12:34:19;;;;;;;1.00;0.90;;;10.60;99.90;;;;;;4990595;28;20674;-77
2022/02/08 12:53:58;;;;;;;0.93;0.77;;;10.80;99.90;;;;;;4991916;28;20198;-77
2022/02/08 12:56:35;;;;;;;0.60;0.50;;;10.70;99.90;;;;;;4991977;28;20205;-77
2022/02/08 12:59:17;;;;;;;0.50;0.40;;;10.70;99.90;;;;;;4992032;28;20237;-76
2022/02/08 13:02:16;;;;;;;2.75;1.70;;;10.70;99.90;;;;;;4991602;28;20268;-76
2022/02/08 13:05:08;;;;;;;1.30;1.23;;;10.70;99.90;;;;;;4992267;28;20200;-76
2022/02/08 14:04:30;;;;;;;7.65;0.90;;;10.90;99.90;;;;;;4972824;28;20284;-76
2022/02/08 14:07:01;;;;;;;0.65;0.60;;;10.80;99.90;;;;;;4973002;28;20223;-76
2022/02/08 14:09:45;;;;;;;0.90;0.50;;;10.90;99.90;;;;;;4990383;28;20193;-77
2022/02/08 14:15:24;;;;;;;0.50;0.40;;;10.80;99.90;;;;;;4994799;28;20207;-76
2022/02/08 14:18:11;;;;;;;0.50;0.40;;;10.80;99.90;;;;;;4994550;28;20225;-77
2022/02/08 14:23:39;;;;;;;0.50;0.40;;;10.80;99.90;;;;;;4994336;28;20471;-76
2022/02/08 14:31:53;;;;;;;0.50;0.40;;;10.90;99.90;;;;;;4994914;28;20176;-76
2022/02/08 14:35:04;;;;;;;0.97;0.87;;;10.80;99.90;;;;;;4994373;28;20646;-76
2022/02/08 15:08:06;;;;;;;1.85;1.75;;;10.60;99.90;;;;;;4993887;28;20231;-78
2022/02/08 15:10:40;;;;;;;1.00;1.00;;;10.50;99.90;;;;;;4992339;28;20776;-78
2022/02/08 15:13:09;;;;;;;0.50;0.40;;;10.50;99.90;;;;;;4993178;28;20203;-78
2022/02/08 15:15:46;;;;;;;1.65;1.00;;;10.50;99.90;;;;;;4991957;28;20203;-77
2022/02/08 15:18:13;;;;;;;0.50;0.50;;;10.50;99.90;;;;;;4992414;28;20601;-77
2022/02/08 15:20:41;;;;;;;1.08;0.98;;;10.50;99.90;;;;;;4993376;28;20201;-77
2022/02/08 15:23:11;;;;;;;0.63;0.50;;;10.50;99.90;;;;;;4994105;28;20551;-77
2022/02/08 15:25:38;;;;;;;0.50;0.40;;;10.50;99.90;;;;;;4993203;28;20236;-77
2022/02/08 15:28:05;;;;;;;3.45;0.50;;;10.50;99.90;;;;;;4993212;28;20215;-78
2022/02/08 15:30:35;;;;;;;0.60;0.60;;;10.50;99.90;;;;;;4993338;28;20204;-77
2022/02/08 15:33:05;;;;;;;0.50;0.50;;;10.40;99.90;;;;;;4993402;28;20205;-76
2022/02/08 15:35:32;;;;;;;0.50;0.40;;;10.40;99.90;;;;;;4992955;28;20210;-78
2022/02/08 15:38:00;;;;;;;0.50;0.40;;;10.50;99.90;;;;;;4992930;28;20228;-78
2022/02/08 15:40:27;;;;;;;0.90;0.70;;;10.50;99.90;;;;;;4993623;28;20566;-77
2022/02/08 15:42:53;;;;;;;0.50;0.40;;;10.50;99.90;;;;;;4992833;28;20204;-77
2022/02/08 15:45:24;;;;;;;0.50;0.40;;;10.50;99.90;;;;;;4980480;28;20201;-78
2022/02/08 15:47:52;;;;;;;0.50;0.40;;;10.50;99.90;;;;;;4973724;28;20223;-76
2022/02/08 15:50:25;;;;;;;0.50;0.40;;;10.50;99.90;;;;;;4973648;28;20259;-77
2022/02/08 15:55:54;;;;;;;2.15;0.80;;;10.50;99.90;;;;;;4948587;28;20200;-76
2022/02/08 15:58:26;;;;;;;0.50;0.40;;;10.40;99.90;;;;;;4972781;28;20221;-77
2022/02/08 16:01:07;;;;;;;0.60;0.50;;;10.40;99.90;;;;;;4973057;28;20579;-77
2022/02/08 16:09:07;;;;;;;0.50;0.40;;;10.30;99.90;;;;;;4965396;28;20205;-77
2022/02/08 16:11:51;;;;;;;1.90;1.63;;;10.40;99.90;;;;;;4973463;28;20635;-77
2022/02/08 16:14:32;;;;;;;0.90;0.50;;;10.40;99.90;;;;;;4975788;28;21300;-77
2022/02/08 16:17:11;;;;;;;0.65;0.65;;;10.40;99.90;;;;;;4983259;28;20620;-79
2022/02/08 16:19:49;;;;;;;0.50;0.40;;;10.40;99.90;;;;;;4982289;28;20236;-76
2022/02/08 16:22:33;;;;;;;0.50;0.40;;;10.40;99.90;;;;;;4977990;28;20675;-77
2022/02/08 16:25:10;;;;;;;0.98;0.93;;;10.40;99.90;;;;;;4973215;28;20224;-76
2022/02/08 16:27:51;;;;;;;0.60;0.55;;;10.40;99.90;;;;;;4972941;28;20226;-77
2022/02/08 16:33:43;;;;;;;1.05;0.95;;;10.40;99.90;;;;;;4950652;28;20189;-76
2022/02/08 16:51:37;;;;;;;0.85;0.85;;;10.40;99.90;;;;;;4962282;28;20192;-78
2022/02/08 16:53:52;;;;;;;1.58;1.00;;;10.40;99.90;;;;;;4972607;28;20211;-77
2022/02/08 16:56:26;;;;;;;0.50;0.50;;;10.30;99.90;;;;;;4972888;28;20197;-77
2022/02/08 16:58:55;;;;;;;0.50;0.40;;;10.30;99.90;;;;;;4972573;28;20220;-78
2022/02/08 17:01:26;;;;;;;0.50;0.40;;;10.20;99.90;;;;;;4973604;28;20198;-78
2022/02/08 17:03:53;;;;;;;0.50;0.40;;;10.30;99.90;;;;;;5005108;22;20225;-76
2022/02/08 17:06:26;;;;;;;1.63;1.52;;;10.30;99.90;;;;;;5048562;28;20225;-78
2022/02/08 17:09:00;;;;;;;1.35;0.95;;;10.20;99.90;;;;;;5053313;28;20178;-78
2022/02/08 17:11:37;;;;;;;0.50;0.40;;;10.20;99.90;;;;;;5055447;28;20224;-78
2022/02/08 17:17:20;;;;;;;0.50;0.40;;;10.20;99.90;;;;;;5056263;28;20244;-78
2022/02/08 17:47:32;;;;;;;0.80;0.70;;;10.10;99.90;;;;;;5051327;28;20687;-76
2022/02/08 17:50:01;;;;;;;0.52;0.52;;;10.20;99.90;;;;;;5047097;28;20186;-77
2022/02/08 17:52:28;;;;;;;1.73;1.63;;;10.10;99.90;;;;;;5038817;28;20274;-77
2022/02/08 17:54:54;;;;;;;1.00;0.73;;;10.10;99.90;;;;;;5030910;28;20223;-77
2022/02/08 17:57:21;;;;;;;1.85;1.70;;;10.10;99.90;;;;;;5030990;28;20211;-76
2022/02/08 17:59:48;;;;;;;30.73;3.20;;;10.10;99.90;;;;;;5034542;28;20285;-78
2022/02/08 18:02:14;;;;;;;5.05;1.48;;;10.10;99.90;;;;;;5032236;28;20744;-78
2022/02/08 18:04:43;;;;;;;1.90;1.80;;;10.10;99.90;;;;;;5030902;28;20227;-77
2022/02/08 18:07:13;;;;;;;0.50;0.40;;;10.10;99.90;;;;;;5031260;28;20203;-77
2022/02/08 18:09:40;;;;;;;0.90;0.63;;;10.10;99.90;;;;;;5031777;28;20214;-77
2022/02/08 18:12:08;;;;;;;0.50;0.40;;;10.00;99.90;;;;;;5031600;28;20279;-77
2022/02/08 18:14:34;;;;;;;0.90;0.90;;;10.10;99.90;;;;;;5031244;28;20227;-77
2022/02/08 18:17:09;;;;;;;1.00;0.77;;;10.00;99.90;;;;;;5031608;28;20211;-78
2022/02/08 18:19:39;;;;;;;0.70;0.70;;;10.00;99.90;;;;;;5031342;28;20202;-78
2022/02/08 18:22:26;;;;;;;27.50;1.30;;;10.00;99.90;;;;;;5031065;28;20203;-78
2022/02/08 18:25:27;;;;;;;0.50;0.40;;;10.00;99.90;;;;;;5032934;28;20222;-78
2022/02/08 18:28:14;;;;;;;0.85;0.55;;;10.00;99.90;;;;;;5047742;28;20747;-78
2022/02/08 18:55:59;;;;;;;0.50;0.40;;;9.80;99.90;;;;;;5032970;28;20577;-78
2022/02/08 19:07:10;;;;;;;1.08;0.47;;;9.80;99.90;;;;;;5033408;28;20282;-78
2022/02/08 19:09:49;;;;;;;0.50;0.40;;;9.80;99.90;;;;;;5032908;28;20245;-78
2022/02/08 19:12:19;;;;;;;3.25;1.75;;;9.70;99.90;;;;;;5033428;28;20667;-77
2022/02/08 19:15:24;;;;;;;1.83;1.73;;;9.80;99.90;;;;;;5032859;28;20804;-78
2022/02/08 19:18:19;;;;;;;0.60;0.50;;;9.70;99.90;;;;;;5032997;28;20186;-78